sensor_id;sensor_type;location;lat;lon;timestamp;temperature;humidity
15296;DHT22;7749;49.964;7.890;2023-09-19T00:00:47;17.70;99.90
15296;DHT22;7749;49.964;7.890;2023-09-19T00:03:16;17.70;99.90
15296;DHT22;7749;49.964;7.890;2023-09-19T00:05:44;17.70;99.90
15296;DHT22;7749;49.964;7.890;2023-09-19T00:08:13;17.60;99.90
15296;DHT22;7749;49.964;7.890;2023-09-19T00:10:43;17.60;99.90
15296;DHT22;7749;49.964;7.890;2023-09-19T00:13:11;17.50;99.90
15296;DHT22;7749;49.964;7.890;2023-09-19T00:15:44;17.50;99.90
15296;DHT22;7749;49.964;7.890;2023-09-19T00:18:19;17.50;99.90
15296;DHT22;7749;49.964;7.890;2023-09-19T00:20:51;17.40;99.90
15296;DHT22;7749;49.964;7.890;2023-09-19T00:23:20;17.40;99.90
15296;DHT22;7749;49.964;7.890;2023-09-19T00:25:48;17.50;99.90
15296;DHT22;7749;49.964;7.890;2023-09-19T00:28:16;17.50;99.90
15296;DHT22;7749;49.964;7.890;2023-09-19T00:30:45;17.50;99.90
15296;DHT22;7749;49.964;7.890;2023-09-19T00:33:21;17.50;99.90
15296;DHT22;7749;49.964;7.890;2023-09-19T00:35:52;17.40;99.90
15296;DHT22;7749;49.964;7.890;2023-09-19T00:38:21;17.40;99.90
15296;DHT22;7749;49.964;7.890;2023-09-19T00:40:50;17.30;99.90
15296;DHT22;7749;49.964;7.890;2023-09-19T00:43:21;17.30;99.90
15296;DHT22;7749;49.964;7.890;2023-09-19T00:45:52;17.20;99.90
15296;DHT22;7749;49.964;7.890;2023-09-19T00:48:22;17.10;99.90
15296;DHT22;7749;49.964;7.890;2023-09-19T00:50:50;17.10;99.90
15296;DHT22;7749;49.964;7.890;2023-09-19T00:53:20;17.10;99.90
15296;DHT22;7749;49.964;7.890;2023-09-19T00:55:51;16.90;99.90
15296;DHT22;7749;49.964;7.890;2023-09-19T00:58:19;16.90;99.90
15296;DHT22;7749;49.964;7.890;2023-09-19T01:00:51;16.90;99.90
15296;DHT22;7749;49.964;7.890;2023-09-19T01:03:20;16.90;99.90
15296;DHT22;7749;49.964;7.890;2023-09-19T01:05:49;16.90;99.90
15296;DHT22;7749;49.964;7.890;2023-09-19T01:08:16;16.90;99.90
15296;DHT22;7749;49.964;7.890;2023-09-19T01:10:52;16.90;99.90
15296;DHT22;7749;49.964;7.890;2023-09-19T01:14:29;16.90;99.90
15296;DHT22;7749;49.964;7.890;2023-09-19T01:19:45;16.90;99.90
15296;DHT22;7749;49.964;7.890;2023-09-19T01:22:25;16.90;99.90
15296;DHT22;7749;49.964;7.890;2023-09-19T01:25:19;16.90;99.90
15296;DHT22;7749;49.964;7.890;2023-09-19T01:30:27;16.80;99.90
15296;DHT22;7749;49.964;7.890;2023-09-19T01:32:59;16.80;99.90
15296;DHT22;7749;49.964;7.890;2023-09-19T01:35:27;16.80;99.90
15296;DHT22;7749;49.964;7.890;2023-09-19T01:37:54;16.80;99.90
15296;DHT22;7749;49.964;7.890;2023-09-19T01:40:22;16.80;99.90
15296;DHT22;7749;49.964;7.890;2023-09-19T01:46:12;16.70;99.90
15296;DHT22;7749;49.964;7.890;2023-09-19T01:48:49;16.70;99.90
15296;DHT22;7749;49.964;7.890;2023-09-19T01:52:17;16.70;99.90
15296;DHT22;7749;49.964;7.890;2023-09-19T01:54:27;16.70;99.90
15296;DHT22;7749;49.964;7.890;2023-09-19T01:59:43;16.60;99.90
15296;DHT22;7749;49.964;7.890;2023-09-19T02:02:12;16.60;99.90
15296;DHT22;7749;49.964;7.890;2023-09-19T02:04:41;16.60;99.90
15296;DHT22;7749;49.964;7.890;2023-09-19T02:07:09;16.60;99.90
15296;DHT22;7749;49.964;7.890;2023-09-19T02:09:36;16.60;99.90
15296;DHT22;7749;49.964;7.890;2023-09-19T02:12:06;16.60;99.90
15296;DHT22;7749;49.964;7.890;2023-09-19T02:14:34;16.50;99.90
15296;DHT22;7749;49.964;7.890;2023-09-19T02:17:03;16.60;99.90
15296;DHT22;7749;49.964;7.890;2023-09-19T02:19:34;16.60;99.90
15296;DHT22;7749;49.964;7.890;2023-09-19T02:22:01;16.50;99.90
15296;DHT22;7749;49.964;7.890;2023-09-19T02:24:34;16.50;99.90
15296;DHT22;7749;49.964;7.890;2023-09-19T02:27:03;16.50;99.90
15296;DHT22;7749;49.964;7.890;2023-09-19T02:29:32;16.50;99.90
15296;DHT22;7749;49.964;7.890;2023-09-19T02:32:01;16.40;99.90
15296;DHT22;7749;49.964;7.890;2023-09-19T02:34:29;16.30;99.90
15296;DHT22;7749;49.964;7.890;2023-09-19T02:36:57;16.30;99.90
15296;DHT22;7749;49.964;7.890;2023-09-19T02:39:25;16.20;99.90
15296;DHT22;7749;49.964;7.890;2023-09-19T02:41:52;16.10;99.90
15296;DHT22;7749;49.964;7.890;2023-09-19T02:44:20;16.10;99.90
15296;DHT22;7749;49.964;7.890;2023-09-19T02:46:47;16.00;99.90
15296;DHT22;7749;49.964;7.890;2023-09-19T02:49:15;16.00;99.90
15296;DHT22;7749;49.964;7.890;2023-09-19T02:51:43;16.00;99.90
15296;DHT22;7749;49.964;7.890;2023-09-19T02:54:10;15.90;99.90
15296;DHT22;7749;49.964;7.890;2023-09-19T02:56:38;15.90;99.90
15296;DHT22;7749;49.964;7.890;2023-09-19T02:59:06;15.80;99.90
15296;DHT22;7749;49.964;7.890;2023-09-19T03:01:34;15.80;99.90
15296;DHT22;7749;49.964;7.890;2023-09-19T03:04:02;15.80;99.90
15296;DHT22;7749;49.964;7.890;2023-09-19T03:06:30;15.80;99.90
15296;DHT22;7749;49.964;7.890;2023-09-19T03:08:58;15.80;99.90
15296;DHT22;7749;49.964;7.890;2023-09-19T03:11:27;15.80;99.90
15296;DHT22;7749;49.964;7.890;2023-09-19T03:13:55;15.80;99.90
15296;DHT22;7749;49.964;7.890;2023-09-19T03:16:23;15.80;99.90
15296;DHT22;7749;49.964;7.890;2023-09-19T03:18:50;15.80;99.90
15296;DHT22;7749;49.964;7.890;2023-09-19T03:21:18;15.80;99.90
15296;DHT22;7749;49.964;7.890;2023-09-19T03:23:46;15.80;99.90
15296;DHT22;7749;49.964;7.890;2023-09-19T03:26:14;15.80;99.90
15296;DHT22;7749;49.964;7.890;2023-09-19T03:28:43;15.80;99.90
15296;DHT22;7749;49.964;7.890;2023-09-19T03:31:11;15.80;99.90
15296;DHT22;7749;49.964;7.890;2023-09-19T03:33:38;15.80;99.90
15296;DHT22;7749;49.964;7.890;2023-09-19T03:36:06;15.80;99.90
15296;DHT22;7749;49.964;7.890;2023-09-19T03:38:34;15.80;99.90
15296;DHT22;7749;49.964;7.890;2023-09-19T03:41:03;15.80;99.90
15296;DHT22;7749;49.964;7.890;2023-09-19T03:43:32;15.80;99.90
15296;DHT22;7749;49.964;7.890;2023-09-19T03:46:03;15.90;99.90
15296;DHT22;7749;49.964;7.890;2023-09-19T03:48:35;15.90;99.90
15296;DHT22;7749;49.964;7.890;2023-09-19T03:51:02;15.90;99.90
15296;DHT22;7749;49.964;7.890;2023-09-19T03:53:30;15.90;99.90
15296;DHT22;7749;49.964;7.890;2023-09-19T03:55:58;15.90;99.90
15296;DHT22;7749;49.964;7.890;2023-09-19T03:58:27;15.90;99.90
15296;DHT22;7749;49.964;7.890;2023-09-19T04:00:56;15.80;99.90
15296;DHT22;7749;49.964;7.890;2023-09-19T04:03:24;15.80;99.90
15296;DHT22;7749;49.964;7.890;2023-09-19T04:05:56;15.80;99.90
15296;DHT22;7749;49.964;7.890;2023-09-19T04:08:23;15.80;99.90
15296;DHT22;7749;49.964;7.890;2023-09-19T04:10:51;15.90;99.90
15296;DHT22;7749;49.964;7.890;2023-09-19T04:13:22;15.90;99.90
15296;DHT22;7749;49.964;7.890;2023-09-19T04:15:50;15.90;99.90
15296;DHT22;7749;49.964;7.890;2023-09-19T04:18:18;15.90;99.90
15296;DHT22;7749;49.964;7.890;2023-09-19T04:20:51;15.90;99.90
15296;DHT22;7749;49.964;7.890;2023-09-19T04:23:18;15.90;99.90
15296;DHT22;7749;49.964;7.890;2023-09-19T04:25:48;15.80;99.90
15296;DHT22;7749;49.964;7.890;2023-09-19T04:28:16;15.90;99.90
15296;DHT22;7749;49.964;7.890;2023-09-19T04:30:44;15.80;99.90
15296;DHT22;7749;49.964;7.890;2023-09-19T04:33:11;15.80;99.90
15296;DHT22;7749;49.964;7.890;2023-09-19T04:35:42;15.80;99.90
15296;DHT22;7749;49.964;7.890;2023-09-19T04:38:12;15.80;99.90
15296;DHT22;7749;49.964;7.890;2023-09-19T04:40:39;15.80;99.90
15296;DHT22;7749;49.964;7.890;2023-09-19T04:43:07;15.70;99.90
15296;DHT22;7749;49.964;7.890;2023-09-19T04:45:38;15.70;99.90
15296;DHT22;7749;49.964;7.890;2023-09-19T04:48:06;15.70;99.90
15296;DHT22;7749;49.964;7.890;2023-09-19T04:50:36;15.70;99.90
15296;DHT22;7749;49.964;7.890;2023-09-19T04:53:04;15.70;99.90
15296;DHT22;7749;49.964;7.890;2023-09-19T04:55:32;15.70;99.90
15296;DHT22;7749;49.964;7.890;2023-09-19T04:58:00;15.70;99.90
15296;DHT22;7749;49.964;7.890;2023-09-19T05:00:28;15.70;99.90
15296;DHT22;7749;49.964;7.890;2023-09-19T05:02:58;15.60;99.90
15296;DHT22;7749;49.964;7.890;2023-09-19T05:05:26;15.60;99.90
15296;DHT22;7749;49.964;7.890;2023-09-19T05:07:54;15.60;99.90
15296;DHT22;7749;49.964;7.890;2023-09-19T05:10:23;15.50;99.90
15296;DHT22;7749;49.964;7.890;2023-09-19T05:12:54;15.50;99.90
15296;DHT22;7749;49.964;7.890;2023-09-19T05:15:22;15.50;99.90
15296;DHT22;7749;49.964;7.890;2023-09-19T05:17:51;15.50;99.90
15296;DHT22;7749;49.964;7.890;2023-09-19T05:20:24;15.50;99.90
15296;DHT22;7749;49.964;7.890;2023-09-19T05:22:59;15.40;99.90
15296;DHT22;7749;49.964;7.890;2023-09-19T05:25:31;15.40;99.90
15296;DHT22;7749;49.964;7.890;2023-09-19T05:28:00;15.40;99.90
15296;DHT22;7749;49.964;7.890;2023-09-19T05:30:32;15.50;99.90
15296;DHT22;7749;49.964;7.890;2023-09-19T05:32:59;15.50;99.90
15296;DHT22;7749;49.964;7.890;2023-09-19T05:35:27;15.60;99.90
15296;DHT22;7749;49.964;7.890;2023-09-19T05:37:55;15.70;99.90
15296;DHT22;7749;49.964;7.890;2023-09-19T05:40:24;15.70;99.90
15296;DHT22;7749;49.964;7.890;2023-09-19T05:42:52;15.70;99.90
15296;DHT22;7749;49.964;7.890;2023-09-19T05:45:19;15.80;99.90
15296;DHT22;7749;49.964;7.890;2023-09-19T05:47:50;15.80;99.90
15296;DHT22;7749;49.964;7.890;2023-09-19T05:50:18;15.80;99.90
15296;DHT22;7749;49.964;7.890;2023-09-19T05:52:54;15.90;99.90
15296;DHT22;7749;49.964;7.890;2023-09-19T05:55:23;15.90;99.90
15296;DHT22;7749;49.964;7.890;2023-09-19T05:57:54;16.00;99.90
15296;DHT22;7749;49.964;7.890;2023-09-19T06:00:23;16.00;99.90
15296;DHT22;7749;49.964;7.890;2023-09-19T06:02:56;16.00;99.90
15296;DHT22;7749;49.964;7.890;2023-09-19T06:05:25;16.00;99.90
15296;DHT22;7749;49.964;7.890;2023-09-19T06:07:59;16.00;99.90
15296;DHT22;7749;49.964;7.890;2023-09-19T06:10:28;16.00;99.90
15296;DHT22;7749;49.964;7.890;2023-09-19T06:12:56;16.10;99.90
15296;DHT22;7749;49.964;7.890;2023-09-19T06:15:25;16.10;99.90
15296;DHT22;7749;49.964;7.890;2023-09-19T06:17:55;16.20;99.90
15296;DHT22;7749;49.964;7.890;2023-09-19T06:20:24;16.20;99.90
15296;DHT22;7749;49.964;7.890;2023-09-19T06:22:53;16.30;99.90
15296;DHT22;7749;49.964;7.890;2023-09-19T06:25:21;16.40;99.90
15296;DHT22;7749;49.964;7.890;2023-09-19T06:27:52;16.40;99.90
15296;DHT22;7749;49.964;7.890;2023-09-19T06:30:24;16.50;99.90
15296;DHT22;7749;49.964;7.890;2023-09-19T06:32:57;16.50;99.90
15296;DHT22;7749;49.964;7.890;2023-09-19T06:35:46;16.60;99.90
15296;DHT22;7749;49.964;7.890;2023-09-19T06:38:34;16.70;99.90
15296;DHT22;7749;49.964;7.890;2023-09-19T06:41:03;16.80;99.90
15296;DHT22;7749;49.964;7.890;2023-09-19T06:43:35;16.90;99.90
15296;DHT22;7749;49.964;7.890;2023-09-19T06:46:03;17.00;99.90
15296;DHT22;7749;49.964;7.890;2023-09-19T06:48:31;16.90;99.90
15296;DHT22;7749;49.964;7.890;2023-09-19T06:51:00;17.00;99.90
15296;DHT22;7749;49.964;7.890;2023-09-19T06:53:33;17.00;99.90
15296;DHT22;7749;49.964;7.890;2023-09-19T06:56:02;17.00;99.90
15296;DHT22;7749;49.964;7.890;2023-09-19T06:58:30;17.20;99.90
15296;DHT22;7749;49.964;7.890;2023-09-19T07:00:59;17.30;99.90
15296;DHT22;7749;49.964;7.890;2023-09-19T07:03:26;17.40;99.90
15296;DHT22;7749;49.964;7.890;2023-09-19T07:05:56;17.50;99.90
15296;DHT22;7749;49.964;7.890;2023-09-19T07:08:26;17.60;99.90
15296;DHT22;7749;49.964;7.890;2023-09-19T07:10:53;17.60;99.90
15296;DHT22;7749;49.964;7.890;2023-09-19T07:13:23;17.70;99.90
15296;DHT22;7749;49.964;7.890;2023-09-19T07:15:52;17.80;99.90
15296;DHT22;7749;49.964;7.890;2023-09-19T07:18:20;17.70;99.90
15296;DHT22;7749;49.964;7.890;2023-09-19T07:20:48;17.90;99.90
15296;DHT22;7749;49.964;7.890;2023-09-19T07:23:19;18.00;99.90
15296;DHT22;7749;49.964;7.890;2023-09-19T07:25:49;18.10;99.90
15296;DHT22;7749;49.964;7.890;2023-09-19T07:28:17;18.20;99.90
15296;DHT22;7749;49.964;7.890;2023-09-19T07:30:45;18.20;99.90
15296;DHT22;7749;49.964;7.890;2023-09-19T07:33:12;18.20;99.90
15296;DHT22;7749;49.964;7.890;2023-09-19T07:35:40;18.20;99.90
15296;DHT22;7749;49.964;7.890;2023-09-19T07:38:08;17.80;99.90
15296;DHT22;7749;49.964;7.890;2023-09-19T07:40:37;17.50;99.90
15296;DHT22;7749;49.964;7.890;2023-09-19T07:43:05;17.80;99.90
15296;DHT22;7749;49.964;7.890;2023-09-19T07:45:34;17.90;99.90
15296;DHT22;7749;49.964;7.890;2023-09-19T07:48:04;17.90;61.80
15296;DHT22;7749;49.964;7.890;2023-09-19T07:50:34;17.80;80.30
15296;DHT22;7749;49.964;7.890;2023-09-19T07:53:05;17.80;69.90
15296;DHT22;7749;49.964;7.890;2023-09-19T07:55:32;17.90;72.90
15296;DHT22;7749;49.964;7.890;2023-09-19T07:58:01;17.80;29.30
15296;DHT22;7749;49.964;7.890;2023-09-19T08:00:31;17.70;65.00
15296;DHT22;7749;49.964;7.890;2023-09-19T08:03:02;17.90;18.50
15296;DHT22;7749;49.964;7.890;2023-09-19T08:05:44;18.10;25.20
15296;DHT22;7749;49.964;7.890;2023-09-19T08:08:12;18.30;6.10
15296;DHT22;7749;49.964;7.890;2023-09-19T08:10:42;18.00;1.00
15296;DHT22;7749;49.964;7.890;2023-09-19T08:13:13;18.00;4.50
15296;DHT22;7749;49.964;7.890;2023-09-19T08:15:45;18.10;1.00
15296;DHT22;7749;49.964;7.890;2023-09-19T08:18:14;18.20;1.00
15296;DHT22;7749;49.964;7.890;2023-09-19T08:20:48;18.40;1.00
15296;DHT22;7749;49.964;7.890;2023-09-19T08:23:16;18.40;1.00
15296;DHT22;7749;49.964;7.890;2023-09-19T08:25:47;18.00;1.00
15296;DHT22;7749;49.964;7.890;2023-09-19T08:28:15;18.00;1.00
15296;DHT22;7749;49.964;7.890;2023-09-19T08:30:46;17.70;1.00
15296;DHT22;7749;49.964;7.890;2023-09-19T08:33:14;17.80;1.00
15296;DHT22;7749;49.964;7.890;2023-09-19T08:35:42;17.90;1.00
15296;DHT22;7749;49.964;7.890;2023-09-19T08:38:10;18.10;1.00
15296;DHT22;7749;49.964;7.890;2023-09-19T08:40:38;18.10;1.00
15296;DHT22;7749;49.964;7.890;2023-09-19T08:43:12;18.20;1.00
15296;DHT22;7749;49.964;7.890;2023-09-19T08:45:40;18.10;1.00
15296;DHT22;7749;49.964;7.890;2023-09-19T08:48:23;18.20;1.00
15296;DHT22;7749;49.964;7.890;2023-09-19T08:51:12;18.20;1.00
15296;DHT22;7749;49.964;7.890;2023-09-19T08:53:51;18.30;1.00
15296;DHT22;7749;49.964;7.890;2023-09-19T08:56:19;18.10;1.00
15296;DHT22;7749;49.964;7.890;2023-09-19T08:58:59;18.10;1.00
15296;DHT22;7749;49.964;7.890;2023-09-19T09:01:28;18.20;1.00
15296;DHT22;7749;49.964;7.890;2023-09-19T09:03:56;18.20;1.00
15296;DHT22;7749;49.964;7.890;2023-09-19T09:06:26;18.40;1.00
15296;DHT22;7749;49.964;7.890;2023-09-19T09:08:55;18.60;1.00
15296;DHT22;7749;49.964;7.890;2023-09-19T09:11:23;18.70;99.90
15296;DHT22;7749;49.964;7.890;2023-09-19T09:13:52;18.60;1.00
15296;DHT22;7749;49.964;7.890;2023-09-19T09:16:20;18.50;1.00
15296;DHT22;7749;49.964;7.890;2023-09-19T09:18:49;18.70;1.00
15296;DHT22;7749;49.964;7.890;2023-09-19T09:21:21;18.60;99.90
15296;DHT22;7749;49.964;7.890;2023-09-19T09:23:49;18.60;1.00
15296;DHT22;7749;49.964;7.890;2023-09-19T09:26:41;19.00;1.00
15296;DHT22;7749;49.964;7.890;2023-09-19T09:29:10;19.40;1.00
15296;DHT22;7749;49.964;7.890;2023-09-19T09:31:38;19.30;99.90
15296;DHT22;7749;49.964;7.890;2023-09-19T09:34:06;19.10;99.90
15296;DHT22;7749;49.964;7.890;2023-09-19T09:36:38;19.30;99.90
15296;DHT22;7749;49.964;7.890;2023-09-19T09:39:07;19.70;99.90
15296;DHT22;7749;49.964;7.890;2023-09-19T09:41:52;19.80;1.00
15296;DHT22;7749;49.964;7.890;2023-09-19T09:44:20;20.20;1.00
15296;DHT22;7749;49.964;7.890;2023-09-19T09:46:48;20.30;1.00
15296;DHT22;7749;49.964;7.890;2023-09-19T09:49:24;20.00;99.90
15296;DHT22;7749;49.964;7.890;2023-09-19T09:52:03;20.20;99.90
15296;DHT22;7749;49.964;7.890;2023-09-19T09:54:38;20.30;99.90
15296;DHT22;7749;49.964;7.890;2023-09-19T09:57:25;20.10;1.00
15296;DHT22;7749;49.964;7.890;2023-09-19T09:59:56;19.90;1.00
15296;DHT22;7749;49.964;7.890;2023-09-19T10:02:43;20.00;1.00
15296;DHT22;7749;49.964;7.890;2023-09-19T10:05:16;20.20;63.90
15296;DHT22;7749;49.964;7.890;2023-09-19T10:08:11;20.20;1.00
15296;DHT22;7749;49.964;7.890;2023-09-19T10:10:40;20.20;99.90
15296;DHT22;7749;49.964;7.890;2023-09-19T10:13:12;20.30;1.00
15296;DHT22;7749;49.964;7.890;2023-09-19T10:15:48;20.70;99.90
15296;DHT22;7749;49.964;7.890;2023-09-19T10:18:24;21.10;99.90
15296;DHT22;7749;49.964;7.890;2023-09-19T10:20:53;20.80;1.00
15296;DHT22;7749;49.964;7.890;2023-09-19T10:23:21;21.30;1.00
15296;DHT22;7749;49.964;7.890;2023-09-19T10:25:54;21.10;99.90
15296;DHT22;7749;49.964;7.890;2023-09-19T10:28:35;21.40;1.00
15296;DHT22;7749;49.964;7.890;2023-09-19T10:31:12;21.50;1.00
15296;DHT22;7749;49.964;7.890;2023-09-19T10:33:47;21.70;99.90
15296;DHT22;7749;49.964;7.890;2023-09-19T10:36:17;22.10;99.90
15296;DHT22;7749;49.964;7.890;2023-09-19T10:39:03;21.90;99.90
15296;DHT22;7749;49.964;7.890;2023-09-19T10:41:55;22.00;99.90
15296;DHT22;7749;49.964;7.890;2023-09-19T10:44:41;21.80;1.00
15296;DHT22;7749;49.964;7.890;2023-09-19T10:47:25;21.70;1.00
15296;DHT22;7749;49.964;7.890;2023-09-19T10:50:22;21.60;1.00
15296;DHT22;7749;49.964;7.890;2023-09-19T10:53:05;21.60;1.00
15296;DHT22;7749;49.964;7.890;2023-09-19T10:55:52;21.70;1.00
15296;DHT22;7749;49.964;7.890;2023-09-19T10:58:34;22.30;1.00
15296;DHT22;7749;49.964;7.890;2023-09-19T11:01:11;23.90;1.00
15296;DHT22;7749;49.964;7.890;2023-09-19T11:03:51;26.40;99.90
15296;DHT22;7749;49.964;7.890;2023-09-19T11:07:09;28.40;65.70
15296;DHT22;7749;49.964;7.890;2023-09-19T11:09:51;28.70;1.00
15296;DHT22;7749;49.964;7.890;2023-09-19T11:15:08;25.80;1.00
15296;DHT22;7749;49.964;7.890;2023-09-19T11:17:39;26.10;1.00
15296;DHT22;7749;49.964;7.890;2023-09-19T11:30:47;26.30;1.00
15296;DHT22;7749;49.964;7.890;2023-09-19T11:33:26;25.10;1.00
15296;DHT22;7749;49.964;7.890;2023-09-19T11:36:05;25.90;1.00
15296;DHT22;7749;49.964;7.890;2023-09-19T11:43:53;29.10;1.00
15296;DHT22;7749;49.964;7.890;2023-09-19T11:46:27;30.70;1.00
15296;DHT22;7749;49.964;7.890;2023-09-19T11:49:08;32.70;1.00
15296;DHT22;7749;49.964;7.890;2023-09-19T11:51:43;31.00;1.00
15296;DHT22;7749;49.964;7.890;2023-09-19T11:54:14;27.20;1.00
15296;DHT22;7749;49.964;7.890;2023-09-19T11:56:46;25.60;1.00
15296;DHT22;7749;49.964;7.890;2023-09-19T11:59:22;25.80;1.00
15296;DHT22;7749;49.964;7.890;2023-09-19T12:02:07;26.70;1.00
15296;DHT22;7749;49.964;7.890;2023-09-19T12:04:42;28.50;1.00
15296;DHT22;7749;49.964;7.890;2023-09-19T12:07:16;29.00;1.00
15296;DHT22;7749;49.964;7.890;2023-09-19T12:09:46;27.90;1.00
15296;DHT22;7749;49.964;7.890;2023-09-19T12:12:26;27.90;1.00
15296;DHT22;7749;49.964;7.890;2023-09-19T12:14:58;28.80;1.00
15296;DHT22;7749;49.964;7.890;2023-09-19T12:17:36;27.10;1.00
15296;DHT22;7749;49.964;7.890;2023-09-19T12:20:05;27.80;1.00
15296;DHT22;7749;49.964;7.890;2023-09-19T12:22:45;29.90;1.00
15296;DHT22;7749;49.964;7.890;2023-09-19T12:25:14;31.40;1.00
15296;DHT22;7749;49.964;7.890;2023-09-19T12:27:47;30.80;1.00
15296;DHT22;7749;49.964;7.890;2023-09-19T12:30:17;31.90;1.00
15296;DHT22;7749;49.964;7.890;2023-09-19T12:32:54;31.60;1.00
15296;DHT22;7749;49.964;7.890;2023-09-19T12:35:33;31.00;1.00
15296;DHT22;7749;49.964;7.890;2023-09-19T12:38:09;31.30;1.00
15296;DHT22;7749;49.964;7.890;2023-09-19T12:40:39;30.90;1.00
15296;DHT22;7749;49.964;7.890;2023-09-19T12:43:10;31.50;1.00
15296;DHT22;7749;49.964;7.890;2023-09-19T12:45:43;32.10;1.00
15296;DHT22;7749;49.964;7.890;2023-09-19T12:48:25;32.20;1.00
15296;DHT22;7749;49.964;7.890;2023-09-19T12:51:09;31.70;1.00
15296;DHT22;7749;49.964;7.890;2023-09-19T12:53:42;29.90;1.00
15296;DHT22;7749;49.964;7.890;2023-09-19T12:56:16;28.40;1.00
15296;DHT22;7749;49.964;7.890;2023-09-19T12:58:56;29.40;1.00
15296;DHT22;7749;49.964;7.890;2023-09-19T13:01:25;29.10;1.00
15296;DHT22;7749;49.964;7.890;2023-09-19T13:04:19;30.00;1.00
15296;DHT22;7749;49.964;7.890;2023-09-19T13:06:51;29.60;1.00
15296;DHT22;7749;49.964;7.890;2023-09-19T13:09:21;28.80;1.00
15296;DHT22;7749;49.964;7.890;2023-09-19T13:11:49;29.10;1.00
15296;DHT22;7749;49.964;7.890;2023-09-19T13:14:28;29.60;1.00
15296;DHT22;7749;49.964;7.890;2023-09-19T13:17:06;31.10;1.00
15296;DHT22;7749;49.964;7.890;2023-09-19T13:19:46;31.70;1.00
15296;DHT22;7749;49.964;7.890;2023-09-19T13:22:42;30.90;1.00
15296;DHT22;7749;49.964;7.890;2023-09-19T13:25:17;29.20;1.00
15296;DHT22;7749;49.964;7.890;2023-09-19T13:27:48;28.60;1.00
15296;DHT22;7749;49.964;7.890;2023-09-19T13:30:19;31.00;1.00
15296;DHT22;7749;49.964;7.890;2023-09-19T13:32:48;31.90;1.00
15296;DHT22;7749;49.964;7.890;2023-09-19T13:35:16;31.50;1.00
15296;DHT22;7749;49.964;7.890;2023-09-19T13:37:44;30.50;1.00
15296;DHT22;7749;49.964;7.890;2023-09-19T13:40:14;30.00;1.00
15296;DHT22;7749;49.964;7.890;2023-09-19T13:42:42;30.40;1.00
15296;DHT22;7749;49.964;7.890;2023-09-19T13:45:10;28.40;1.00
15296;DHT22;7749;49.964;7.890;2023-09-19T13:47:40;28.20;1.00
15296;DHT22;7749;49.964;7.890;2023-09-19T13:50:09;27.20;1.00
15296;DHT22;7749;49.964;7.890;2023-09-19T13:52:36;26.20;1.00
15296;DHT22;7749;49.964;7.890;2023-09-19T13:55:06;26.20;1.00
15296;DHT22;7749;49.964;7.890;2023-09-19T13:57:47;27.60;1.00
15296;DHT22;7749;49.964;7.890;2023-09-19T14:00:20;28.90;1.00
15296;DHT22;7749;49.964;7.890;2023-09-19T14:02:48;30.20;1.00
15296;DHT22;7749;49.964;7.890;2023-09-19T14:05:19;30.90;1.00
15296;DHT22;7749;49.964;7.890;2023-09-19T14:07:48;31.40;1.00
15296;DHT22;7749;49.964;7.890;2023-09-19T14:10:22;30.60;1.00
15296;DHT22;7749;49.964;7.890;2023-09-19T14:12:50;31.00;1.00
15296;DHT22;7749;49.964;7.890;2023-09-19T14:15:23;31.40;1.00
15296;DHT22;7749;49.964;7.890;2023-09-19T14:17:57;31.00;1.00
15296;DHT22;7749;49.964;7.890;2023-09-19T14:20:27;31.60;1.00
15296;DHT22;7749;49.964;7.890;2023-09-19T14:22:55;32.60;1.00
15296;DHT22;7749;49.964;7.890;2023-09-19T14:25:23;33.40;1.00
15296;DHT22;7749;49.964;7.890;2023-09-19T14:27:50;33.70;1.00
15296;DHT22;7749;49.964;7.890;2023-09-19T14:30:19;33.60;1.00
15296;DHT22;7749;49.964;7.890;2023-09-19T14:32:46;33.40;1.00
15296;DHT22;7749;49.964;7.890;2023-09-19T14:35:23;34.40;1.00
15296;DHT22;7749;49.964;7.890;2023-09-19T14:37:51;34.30;1.00
15296;DHT22;7749;49.964;7.890;2023-09-19T14:40:24;32.50;1.00
15296;DHT22;7749;49.964;7.890;2023-09-19T14:42:53;30.40;1.00
15296;DHT22;7749;49.964;7.890;2023-09-19T14:45:27;30.80;1.00
15296;DHT22;7749;49.964;7.890;2023-09-19T14:47:55;30.70;1.00
15296;DHT22;7749;49.964;7.890;2023-09-19T14:50:23;31.00;1.00
15296;DHT22;7749;49.964;7.890;2023-09-19T14:52:52;29.00;1.00
15296;DHT22;7749;49.964;7.890;2023-09-19T14:55:21;29.20;1.00
15296;DHT22;7749;49.964;7.890;2023-09-19T14:57:50;30.20;1.00
15296;DHT22;7749;49.964;7.890;2023-09-19T15:00:19;30.70;1.00
15296;DHT22;7749;49.964;7.890;2023-09-19T15:02:48;29.80;1.00
15296;DHT22;7749;49.964;7.890;2023-09-19T15:05:23;31.20;1.00
15296;DHT22;7749;49.964;7.890;2023-09-19T15:07:51;32.20;1.00
15296;DHT22;7749;49.964;7.890;2023-09-19T15:10:19;32.70;1.00
15296;DHT22;7749;49.964;7.890;2023-09-19T15:12:46;29.80;1.00
15296;DHT22;7749;49.964;7.890;2023-09-19T15:15:14;29.80;1.00
15296;DHT22;7749;49.964;7.890;2023-09-19T15:17:42;31.00;1.00
15296;DHT22;7749;49.964;7.890;2023-09-19T15:20:10;31.00;1.00
15296;DHT22;7749;49.964;7.890;2023-09-19T15:22:41;32.30;1.00
15296;DHT22;7749;49.964;7.890;2023-09-19T15:25:22;33.20;1.00
15296;DHT22;7749;49.964;7.890;2023-09-19T15:27:50;33.10;1.00
15296;DHT22;7749;49.964;7.890;2023-09-19T15:30:18;32.10;1.00
15296;DHT22;7749;49.964;7.890;2023-09-19T15:32:46;32.00;1.00
15296;DHT22;7749;49.964;7.890;2023-09-19T15:35:29;31.70;1.00
15296;DHT22;7749;49.964;7.890;2023-09-19T15:37:57;30.80;1.00
15296;DHT22;7749;49.964;7.890;2023-09-19T15:40:26;30.00;1.00
15296;DHT22;7749;49.964;7.890;2023-09-19T15:42:54;29.70;1.00
15296;DHT22;7749;49.964;7.890;2023-09-19T15:45:24;29.90;1.00
15296;DHT22;7749;49.964;7.890;2023-09-19T15:47:52;31.00;1.00
15296;DHT22;7749;49.964;7.890;2023-09-19T15:50:21;30.80;1.00
15296;DHT22;7749;49.964;7.890;2023-09-19T15:52:53;30.40;1.00
15296;DHT22;7749;49.964;7.890;2023-09-19T15:55:25;29.20;1.00
15296;DHT22;7749;49.964;7.890;2023-09-19T15:57:53;29.10;1.00
15296;DHT22;7749;49.964;7.890;2023-09-19T16:00:21;29.00;1.00
15296;DHT22;7749;49.964;7.890;2023-09-19T16:02:49;29.70;1.00
15296;DHT22;7749;49.964;7.890;2023-09-19T16:05:18;30.10;1.00
15296;DHT22;7749;49.964;7.890;2023-09-19T16:07:45;30.60;1.00
15296;DHT22;7749;49.964;7.890;2023-09-19T16:10:19;30.00;1.00
15296;DHT22;7749;49.964;7.890;2023-09-19T16:12:46;30.20;1.00
15296;DHT22;7749;49.964;7.890;2023-09-19T16:15:14;28.70;1.00
15296;DHT22;7749;49.964;7.890;2023-09-19T16:17:42;27.50;1.00
15296;DHT22;7749;49.964;7.890;2023-09-19T16:20:26;25.90;1.00
15296;DHT22;7749;49.964;7.890;2023-09-19T16:22:55;25.10;1.00
15296;DHT22;7749;49.964;7.890;2023-09-19T16:25:22;24.40;1.00
15296;DHT22;7749;49.964;7.890;2023-09-19T16:27:51;24.20;99.90
15296;DHT22;7749;49.964;7.890;2023-09-19T16:30:19;23.90;1.00
15296;DHT22;7749;49.964;7.890;2023-09-19T16:32:46;23.70;1.00
15296;DHT22;7749;49.964;7.890;2023-09-19T16:35:20;23.40;99.90
15296;DHT22;7749;49.964;7.890;2023-09-19T16:37:47;23.20;1.00
15296;DHT22;7749;49.964;7.890;2023-09-19T16:40:15;23.20;1.00
15296;DHT22;7749;49.964;7.890;2023-09-19T16:42:43;23.20;99.90
15296;DHT22;7749;49.964;7.890;2023-09-19T16:45:26;23.20;99.90
15296;DHT22;7749;49.964;7.890;2023-09-19T16:47:53;23.10;50.30
15296;DHT22;7749;49.964;7.890;2023-09-19T16:50:28;23.10;1.00